createdAt,value
2018-07-12T00:01:26.484Z,3.93
2018-07-12T00:07:21.447Z,3.6
2018-07-12T00:13:16.491Z,3.9
2018-07-12T00:19:11.500Z,4.01
2018-07-12T00:25:06.471Z,4.52
2018-07-12T00:31:01.456Z,4.35
2018-07-12T00:36:56.452Z,4.34
2018-07-12T00:42:51.473Z,4
2018-07-12T00:48:46.550Z,3.98
2018-07-12T00:54:41.467Z,3.87
2018-07-12T01:00:36.516Z,4.98
2018-07-12T01:06:31.489Z,5.09
2018-07-12T01:12:26.535Z,4.51
2018-07-12T01:18:21.481Z,4.46
2018-07-12T01:24:16.566Z,4.28
2018-07-12T01:30:11.699Z,4.92
2018-07-12T01:36:06.573Z,4.52
2018-07-12T01:42:01.513Z,4.29
2018-07-12T01:47:56.552Z,4.5
2018-07-12T01:53:51.504Z,3.87
2018-07-12T01:59:46.523Z,4.49
2018-07-12T02:05:41.515Z,4.59
2018-07-12T02:11:36.542Z,4.23
2018-07-12T02:17:31.533Z,3.49
2018-07-12T02:23:26.556Z,3.7
2018-07-12T02:29:21.584Z,4.16
2018-07-12T02:35:16.564Z,3.59
2018-07-12T02:41:11.532Z,3.87
2018-07-12T02:47:06.546Z,4.18
2018-07-12T02:53:01.599Z,4.28
2018-07-12T02:58:56.610Z,4.76
2018-07-12T03:04:51.595Z,4.57
2018-07-12T03:10:46.552Z,4.66
2018-07-12T03:16:41.557Z,3.93
2018-07-12T03:22:36.569Z,4.34
2018-07-12T03:28:31.581Z,4.51
2018-07-12T03:34:26.558Z,3.88
2018-07-12T03:40:21.635Z,4.31
2018-07-12T03:46:16.571Z,4.52
2018-07-12T03:52:11.580Z,4.61
2018-07-12T03:58:06.631Z,4.38
2018-07-12T04:04:01.610Z,4.1
2018-07-12T04:09:56.660Z,3.92
2018-07-12T04:15:51.654Z,3.83
2018-07-12T04:21:46.614Z,3.6
2018-07-12T04:27:41.645Z,4.01
2018-07-12T04:33:36.632Z,3.85
2018-07-12T04:39:31.601Z,4.49
2018-07-12T04:45:26.599Z,4.36
2018-07-12T04:51:21.614Z,4.47
2018-07-12T04:57:16.635Z,4.11
2018-07-12T05:03:11.604Z,4.5
2018-07-12T05:09:06.634Z,4.47
2018-07-12T05:15:01.625Z,4.33
2018-07-12T05:20:56.609Z,5.36
2018-07-12T05:26:51.696Z,4.42
2018-07-12T05:32:46.634Z,5.72
2018-07-12T05:38:41.678Z,4.57
2018-07-12T05:44:36.638Z,3.98
2018-07-12T05:50:31.648Z,4.11
2018-07-12T05:56:26.653Z,5.18
2018-07-12T06:02:21.657Z,5.38
2018-07-12T06:08:16.665Z,5.6
2018-07-12T06:14:11.657Z,5.73
2018-07-12T06:20:06.848Z,7.59
2018-07-12T06:26:01.688Z,10.25
2018-07-12T06:31:56.655Z,8.22
2018-07-12T06:37:51.673Z,6.53
2018-07-12T06:43:46.680Z,5.83
2018-07-12T06:49:41.697Z,5.71
2018-07-12T08:08:24.507Z,7.13
2018-07-12T08:14:19.507Z,5.34
2018-07-12T08:20:14.527Z,4.45
2018-07-12T08:26:09.512Z,4.86
2018-07-12T08:32:04.540Z,5.06
2018-07-12T08:37:59.524Z,5.67
2018-07-12T08:43:54.558Z,4.87
2018-07-12T08:49:49.602Z,5.25
2018-07-12T08:55:44.544Z,4.69
2018-07-12T09:01:39.594Z,4.23
2018-07-12T09:07:34.539Z,4.31
2018-07-12T09:13:29.552Z,4.07
2018-07-12T09:19:24.542Z,5.49
2018-07-12T09:25:19.580Z,5.11
2018-07-12T09:31:14.537Z,5.71
2018-07-12T09:37:09.652Z,5.21
2018-07-12T09:43:04.673Z,4.43
2018-07-12T09:48:59.576Z,4.37
2018-07-12T09:54:54.586Z,3.98
2018-07-12T10:00:49.602Z,3.87
2018-07-12T10:06:44.761Z,3.87
2018-07-12T10:12:39.764Z,3.96
2018-07-12T10:18:34.593Z,3.7
2018-07-12T10:24:29.790Z,4.23
2018-07-12T10:30:24.635Z,4.48
2018-07-12T10:36:19.590Z,4.32
2018-07-12T10:42:14.597Z,4.69
2018-07-12T10:48:09.592Z,4.64
2018-07-12T10:54:04.588Z,4.86
2018-07-12T10:59:59.669Z,3.94
2018-07-12T11:05:54.646Z,4.01
2018-07-12T11:11:49.639Z,5.13
2018-07-12T11:17:44.660Z,4.31
2018-07-12T11:23:39.888Z,4.18
2018-07-12T11:29:34.623Z,4.6
2018-07-12T11:35:29.666Z,3.95
2018-07-12T11:41:24.623Z,4.21
2018-07-12T11:47:20.198Z,3.83
2018-07-12T11:53:14.643Z,3.48
2018-07-12T11:59:09.645Z,4.22
2018-07-12T12:05:04.749Z,4.04
2018-07-12T12:10:59.659Z,3.8
2018-07-12T12:16:55.096Z,4.18
2018-07-12T12:22:49.657Z,3.85
2018-07-12T12:28:44.813Z,4.41
2018-07-12T12:34:39.658Z,4
2018-07-12T12:40:35.054Z,3.7
2018-07-12T12:46:29.721Z,2.57
2018-07-12T12:52:24.684Z,3.14
2018-07-12T12:58:19.666Z,2.83
2018-07-12T13:04:14.675Z,3.01
2018-07-12T13:10:10.121Z,2.83
2018-07-12T13:16:04.692Z,2.73
2018-07-12T13:21:59.735Z,2.68
2018-07-12T13:27:54.812Z,2.39
2018-07-12T13:33:49.715Z,2.42
2018-07-12T13:39:44.719Z,2.96
2018-07-12T13:45:39.721Z,2.63
2018-07-12T13:51:34.703Z,2.47
2018-07-12T13:57:29.728Z,2.3
2018-07-12T14:03:24.711Z,2.41
2018-07-12T14:09:19.737Z,2.21
2018-07-12T14:15:14.734Z,2.67
2018-07-12T14:21:09.731Z,2.67
2018-07-12T14:27:04.741Z,2.73
2018-07-12T14:32:59.728Z,2.75
2018-07-12T14:38:54.776Z,2.39
2018-07-12T14:44:49.765Z,3.39
2018-07-12T14:50:44.745Z,3.3
2018-07-12T14:56:39.735Z,3.43
2018-07-12T15:02:34.852Z,2.85
2018-07-12T15:08:29.800Z,3.22
2018-07-12T15:14:24.760Z,2.65
2018-07-12T15:20:19.808Z,2.97
2018-07-12T15:26:14.820Z,3.16
2018-07-12T15:32:09.775Z,3.24
2018-07-12T15:38:04.768Z,3.38
2018-07-12T15:43:59.826Z,3.09
2018-07-12T15:49:54.814Z,2.96
2018-07-12T15:55:49.782Z,3.1
2018-07-12T16:01:44.794Z,3.27
2018-07-12T16:07:39.895Z,2.85
2018-07-12T16:13:34.995Z,2.81
2018-07-12T16:19:29.797Z,2.8
2018-07-12T16:25:24.833Z,2.6
2018-07-12T16:31:19.821Z,2.67
2018-07-12T16:37:14.903Z,2.07
2018-07-12T16:43:09.811Z,2.56
2018-07-12T16:49:04.813Z,2.35
2018-07-12T16:54:59.828Z,1.97
2018-07-12T17:00:54.836Z,2.14
2018-07-12T17:06:49.838Z,2.38
2018-07-12T17:12:44.843Z,2.13
2018-07-12T17:18:39.844Z,2.28
2018-07-12T17:24:34.869Z,2.13
2018-07-12T17:30:29.858Z,2.8
2018-07-12T17:36:24.867Z,2.13
2018-07-12T17:42:19.863Z,2.38
2018-07-12T17:48:14.857Z,2.6
2018-07-12T17:54:09.898Z,2.47
2018-07-12T18:00:04.877Z,2.6
2018-07-12T18:05:59.863Z,2.64
2018-07-12T18:11:54.867Z,3.24
2018-07-12T18:17:49.882Z,2.49
2018-07-12T18:23:44.936Z,2.95
2018-07-12T18:29:39.878Z,2.66
2018-07-12T18:35:34.876Z,2.69
2018-07-12T18:41:29.881Z,2.65
2018-07-12T18:47:24.884Z,3.69
2018-07-12T18:53:19.922Z,3.06
2018-07-12T18:59:14.970Z,3.22
2018-07-12T19:05:09.894Z,2.94
2018-07-12T19:11:04.927Z,2.81
2018-07-12T19:16:59.906Z,3.19
2018-07-12T19:22:54.930Z,3.05
2018-07-12T19:28:49.908Z,2.75
2018-07-12T19:34:44.966Z,3.05
2018-07-12T19:40:39.926Z,3.39
2018-07-12T19:46:34.976Z,3.46
2018-07-12T19:52:29.941Z,3.5
2018-07-12T19:58:24.960Z,3.49
2018-07-12T20:04:19.962Z,3.75
2018-07-12T20:10:14.955Z,3.48
2018-07-12T20:16:09.939Z,3.53
2018-07-12T20:22:04.967Z,3.31
2018-07-12T20:27:59.970Z,3.53
2018-07-12T20:33:54.943Z,3.62
2018-07-12T20:39:49.951Z,3.6
2018-07-12T20:45:44.968Z,3.68
2018-07-12T20:51:39.961Z,3.67
2018-07-12T20:57:35.035Z,4.13
2018-07-12T21:03:30.029Z,4.52
2018-07-12T21:09:25.031Z,4.23
2018-07-12T21:15:19.982Z,4.61
2018-07-12T21:21:14.967Z,3.81
2018-07-12T21:27:10.002Z,4.25
2018-07-12T21:33:05.018Z,5.78
2018-07-12T21:39:00.022Z,3.74
2018-07-12T21:44:55.020Z,4.58
2018-07-12T21:50:50.022Z,4.66
2018-07-12T21:56:45.022Z,4.68
2018-07-12T22:02:40.095Z,4.32
2018-07-12T22:08:35.010Z,4.7
2018-07-12T22:14:30.008Z,4.79
2018-07-12T22:20:25.069Z,5.25
2018-07-12T22:26:20.083Z,4.61
2018-07-12T22:32:15.047Z,4.69
2018-07-12T22:38:10.041Z,5.39
2018-07-12T22:44:05.060Z,6.49
2018-07-12T22:50:00.024Z,9.09
2018-07-12T22:55:55.093Z,11.33
2018-07-12T23:01:50.057Z,11.06
2018-07-12T23:07:45.087Z,10.28
2018-07-12T23:13:40.066Z,10.67
2018-07-12T23:19:35.069Z,8.24
2018-07-12T23:25:30.147Z,8.39
2018-07-12T23:31:25.093Z,7.4
2018-07-12T23:37:20.075Z,6.47
2018-07-12T23:43:15.063Z,6.31
2018-07-12T23:49:10.078Z,6.1
2018-07-12T23:55:05.065Z,5.91
